sensor_id;sensor_type;location;lat;lon;timestamp;P1;durP1;ratioP1;P2;durP2;ratioP2
30458;SDS011;17254;50.976;7.034;2023-07-13T00:00:04;5.17;;;1.97;;
30458;SDS011;17254;50.976;7.034;2023-07-13T00:00:14;4.94;;;2.00;;
30458;SDS011;17254;50.976;7.034;2023-07-13T00:00:21;5.53;;;2.10;;
30458;SDS011;17254;50.976;7.034;2023-07-13T00:00:27;5.10;;;2.20;;
30458;SDS011;17254;50.976;7.034;2023-07-13T00:00:33;5.20;;;2.23;;
30458;SDS011;17254;50.976;7.034;2023-07-13T00:00:39;5.18;;;2.30;;
30458;SDS011;17254;50.976;7.034;2023-07-13T00:00:45;5.07;;;2.37;;
30458;SDS011;17254;50.976;7.034;2023-07-13T00:00:52;4.94;;;2.36;;
30458;SDS011;17254;50.976;7.034;2023-07-13T00:00:58;5.15;;;2.13;;
30458;SDS011;17254;50.976;7.034;2023-07-13T00:01:04;5.40;;;1.95;;
30458;SDS011;17254;50.976;7.034;2023-07-13T00:01:11;5.74;;;2.00;;
30458;SDS011;17254;50.976;7.034;2023-07-13T00:01:17;5.78;;;1.90;;
30458;SDS011;17254;50.976;7.034;2023-07-13T00:01:23;5.38;;;1.90;;
30458;SDS011;17254;50.976;7.034;2023-07-13T00:01:29;5.15;;;2.05;;
30458;SDS011;17254;50.976;7.034;2023-07-13T00:01:36;5.38;;;2.20;;
30458;SDS011;17254;50.976;7.034;2023-07-13T00:01:43;5.52;;;2.12;;
30458;SDS011;17254;50.976;7.034;2023-07-13T00:01:51;6.10;;;2.07;;
30458;SDS011;17254;50.976;7.034;2023-07-13T00:01:57;7.13;;;2.17;;
30458;SDS011;17254;50.976;7.034;2023-07-13T00:02:03;7.20;;;2.20;;
30458;SDS011;17254;50.976;7.034;2023-07-13T00:02:09;6.90;;;2.10;;
30458;SDS011;17254;50.976;7.034;2023-07-13T00:02:15;6.90;;;2.17;;
30458;SDS011;17254;50.976;7.034;2023-07-13T00:02:21;6.37;;;2.23;;
30458;SDS011;17254;50.976;7.034;2023-07-13T00:02:28;5.57;;;2.10;;
30458;SDS011;17254;50.976;7.034;2023-07-13T00:02:34;5.03;;;2.10;;
30458;SDS011;17254;50.976;7.034;2023-07-13T00:02:40;5.22;;;2.17;;
30458;SDS011;17254;50.976;7.034;2023-07-13T00:02:46;4.95;;;2.20;;
30458;SDS011;17254;50.976;7.034;2023-07-13T00:02:52;4.90;;;2.10;;
30458;SDS011;17254;50.976;7.034;2023-07-13T00:02:58;5.40;;;2.20;;
30458;SDS011;17254;50.976;7.034;2023-07-13T00:03:04;5.27;;;2.13;;
30458;SDS011;17254;50.976;7.034;2023-07-13T00:03:10;5.20;;;2.10;;
30458;SDS011;17254;50.976;7.034;2023-07-13T00:03:18;5.83;;;2.17;;
30458;SDS011;17254;50.976;7.034;2023-07-13T00:03:24;5.68;;;2.28;;
30458;SDS011;17254;50.976;7.034;2023-07-13T00:03:30;4.83;;;2.20;;
30458;SDS011;17254;50.976;7.034;2023-07-13T00:03:40;5.80;;;2.26;;
30458;SDS011;17254;50.976;7.034;2023-07-13T00:03:46;6.25;;;2.40;;
30458;SDS011;17254;50.976;7.034;2023-07-13T00:03:52;6.60;;;2.40;;
30458;SDS011;17254;50.976;7.034;2023-07-13T00:03:58;7.15;;;2.50;;
30458;SDS011;17254;50.976;7.034;2023-07-13T00:04:05;6.77;;;2.43;;
30458;SDS011;17254;50.976;7.034;2023-07-13T00:04:11;5.85;;;2.33;;
30458;SDS011;17254;50.976;7.034;2023-07-13T00:04:17;5.72;;;2.22;;
30458;SDS011;17254;50.976;7.034;2023-07-13T00:04:24;5.10;;;2.06;;
30458;SDS011;17254;50.976;7.034;2023-07-13T00:04:31;5.06;;;2.04;;
30458;SDS011;17254;50.976;7.034;2023-07-13T00:04:37;5.57;;;2.20;;
30458;SDS011;17254;50.976;7.034;2023-07-13T00:04:43;5.75;;;2.20;;
30458;SDS011;17254;50.976;7.034;2023-07-13T00:04:49;5.97;;;2.15;;
30458;SDS011;17254;50.976;7.034;2023-07-13T00:04:55;6.00;;;2.20;;
30458;SDS011;17254;50.976;7.034;2023-07-13T00:05:01;5.72;;;2.17;;
30458;SDS011;17254;50.976;7.034;2023-07-13T00:05:07;5.70;;;2.07;;
30458;SDS011;17254;50.976;7.034;2023-07-13T00:05:13;5.80;;;2.13;;
30458;SDS011;17254;50.976;7.034;2023-07-13T00:05:20;5.30;;;2.20;;
30458;SDS011;17254;50.976;7.034;2023-07-13T00:05:25;5.30;;;2.22;;
30458;SDS011;17254;50.976;7.034;2023-07-13T00:05:32;5.52;;;2.20;;
30458;SDS011;17254;50.976;7.034;2023-07-13T00:05:38;5.40;;;2.15;;
30458;SDS011;17254;50.976;7.034;2023-07-13T00:05:44;5.30;;;2.23;;
30458;SDS011;17254;50.976;7.034;2023-07-13T00:05:56;5.50;;;2.22;;
30458;SDS011;17254;50.976;7.034;2023-07-13T00:06:03;5.22;;;2.22;;
30458;SDS011;17254;50.976;7.034;2023-07-13T00:06:09;5.03;;;2.25;;
30458;SDS011;17254;50.976;7.034;2023-07-13T00:06:15;5.73;;;2.23;;
30458;SDS011;17254;50.976;7.034;2023-07-13T00:06:21;5.65;;;2.33;;
30458;SDS011;17254;50.976;7.034;2023-07-13T00:06:28;5.78;;;2.28;;
30458;SDS011;17254;50.976;7.034;2023-07-13T00:06:37;6.05;;;2.30;;
30458;SDS011;17254;50.976;7.034;2023-07-13T00:06:43;5.82;;;2.20;;
30458;SDS011;17254;50.976;7.034;2023-07-13T00:06:49;6.50;;;2.15;;
30458;SDS011;17254;50.976;7.034;2023-07-13T00:06:55;7.20;;;2.03;;
30458;SDS011;17254;50.976;7.034;2023-07-13T00:07:01;7.20;;;2.08;;
30458;SDS011;17254;50.976;7.034;2023-07-13T00:07:08;7.10;;;2.07;;
30458;SDS011;17254;50.976;7.034;2023-07-13T00:07:14;6.47;;;1.90;;
30458;SDS011;17254;50.976;7.034;2023-07-13T00:07:20;5.67;;;2.00;;
30458;SDS011;17254;50.976;7.034;2023-07-13T00:07:26;5.13;;;2.00;;
30458;SDS011;17254;50.976;7.034;2023-07-13T00:07:31;4.97;;;2.00;;
30458;SDS011;17254;50.976;7.034;2023-07-13T00:07:37;5.38;;;2.05;;
30458;SDS011;17254;50.976;7.034;2023-07-13T00:07:43;6.10;;;2.35;;
30458;SDS011;17254;50.976;7.034;2023-07-13T00:07:51;6.20;;;2.40;;
30458;SDS011;17254;50.976;7.034;2023-07-13T00:07:57;6.74;;;2.46;;
30458;SDS011;17254;50.976;7.034;2023-07-13T00:08:03;6.80;;;2.50;;
30458;SDS011;17254;50.976;7.034;2023-07-13T00:08:09;6.43;;;2.33;;
30458;SDS011;17254;50.976;7.034;2023-07-13T00:08:16;6.57;;;2.13;;
30458;SDS011;17254;50.976;7.034;2023-07-13T00:08:23;6.77;;;2.03;;
30458;SDS011;17254;50.976;7.034;2023-07-13T00:08:30;6.03;;;1.88;;
30458;SDS011;17254;50.976;7.034;2023-07-13T00:08:37;5.86;;;1.90;;
30458;SDS011;17254;50.976;7.034;2023-07-13T00:08:44;5.60;;;2.00;;
30458;SDS011;17254;50.976;7.034;2023-07-13T00:08:50;5.43;;;2.10;;
30458;SDS011;17254;50.976;7.034;2023-07-13T00:08:56;5.93;;;2.35;;
30458;SDS011;17254;50.976;7.034;2023-07-13T00:09:02;6.40;;;2.60;;
30458;SDS011;17254;50.976;7.034;2023-07-13T00:09:08;5.72;;;2.55;;
30458;SDS011;17254;50.976;7.034;2023-07-13T00:09:15;6.03;;;2.60;;
30458;SDS011;17254;50.976;7.034;2023-07-13T00:09:22;6.32;;;2.67;;
30458;SDS011;17254;50.976;7.034;2023-07-13T00:09:28;5.53;;;2.40;;
30458;SDS011;17254;50.976;7.034;2023-07-13T00:09:34;5.50;;;2.30;;
30458;SDS011;17254;50.976;7.034;2023-07-13T00:09:40;5.50;;;2.22;;
30458;SDS011;17254;50.976;7.034;2023-07-13T00:09:46;5.23;;;2.13;;
30458;SDS011;17254;50.976;7.034;2023-07-13T00:09:52;5.53;;;2.00;;
30458;SDS011;17254;50.976;7.034;2023-07-13T00:09:59;5.66;;;1.88;;
30458;SDS011;17254;50.976;7.034;2023-07-13T00:10:08;5.50;;;1.67;;
30458;SDS011;17254;50.976;7.034;2023-07-13T00:10:14;5.45;;;1.74;;
30458;SDS011;17254;50.976;7.034;2023-07-13T00:10:20;4.87;;;1.80;;
30458;SDS011;17254;50.976;7.034;2023-07-13T00:10:27;4.82;;;1.85;;
30458;SDS011;17254;50.976;7.034;2023-07-13T00:10:32;4.63;;;2.00;;
30458;SDS011;17254;50.976;7.034;2023-07-13T00:10:39;5.00;;;2.03;;
30458;SDS011;17254;50.976;7.034;2023-07-13T00:10:46;4.92;;;2.00;;
30458;SDS011;17254;50.976;7.034;2023-07-13T00:10:52;5.88;;;2.13;;
30458;SDS011;17254;50.976;7.034;2023-07-13T00:10:59;6.70;;;2.30;;
30458;SDS011;17254;50.976;7.034;2023-07-13T00:11:05;6.27;;;2.30;;
30458;SDS011;17254;50.976;7.034;2023-07-13T00:11:11;6.70;;;2.27;;
30458;SDS011;17254;50.976;7.034;2023-07-13T00:11:18;6.90;;;2.20;;
30458;SDS011;17254;50.976;7.034;2023-07-13T00:11:23;6.18;;;2.08;;
30458;SDS011;17254;50.976;7.034;2023-07-13T00:11:29;5.95;;;2.00;;
30458;SDS011;17254;50.976;7.034;2023-07-13T00:11:35;6.32;;;2.03;;
30458;SDS011;17254;50.976;7.034;2023-07-13T00:11:41;5.85;;;2.03;;
30458;SDS011;17254;50.976;7.034;2023-07-13T00:11:50;5.88;;;1.96;;
30458;SDS011;17254;50.976;7.034;2023-07-13T00:11:57;5.53;;;2.00;;
30458;SDS011;17254;50.976;7.034;2023-07-13T00:12:03;5.47;;;2.00;;
30458;SDS011;17254;50.976;7.034;2023-07-13T00:12:22;6.83;;;2.10;;
30458;SDS011;17254;50.976;7.034;2023-07-13T00:12:30;6.93;;;2.21;;
30458;SDS011;17254;50.976;7.034;2023-07-13T00:12:38;6.13;;;1.97;;
30458;SDS011;17254;50.976;7.034;2023-07-13T00:12:44;5.57;;;1.92;;
30458;SDS011;17254;50.976;7.034;2023-07-13T00:12:50;5.43;;;1.90;;
30458;SDS011;17254;50.976;7.034;2023-07-13T00:12:59;5.61;;;2.00;;
30458;SDS011;17254;50.976;7.034;2023-07-13T00:13:06;5.60;;;2.03;;
30458;SDS011;17254;50.976;7.034;2023-07-13T00:13:12;5.56;;;2.18;;
30458;SDS011;17254;50.976;7.034;2023-07-13T00:13:18;5.10;;;2.15;;
30458;SDS011;17254;50.976;7.034;2023-07-13T00:13:24;4.88;;;2.10;;
30458;SDS011;17254;50.976;7.034;2023-07-13T00:13:30;4.60;;;2.10;;
30458;SDS011;17254;50.976;7.034;2023-07-13T00:13:36;4.63;;;2.00;;
30458;SDS011;17254;50.976;7.034;2023-07-13T00:13:44;4.60;;;2.02;;
30458;SDS011;17254;50.976;7.034;2023-07-13T00:13:50;5.28;;;2.10;;
30458;SDS011;17254;50.976;7.034;2023-07-13T00:13:57;5.52;;;2.08;;
30458;SDS011;17254;50.976;7.034;2023-07-13T00:14:04;6.35;;;2.17;;
30458;SDS011;17254;50.976;7.034;2023-07-13T00:14:10;6.93;;;2.10;;
30458;SDS011;17254;50.976;7.034;2023-07-13T00:14:16;7.43;;;2.20;;
30458;SDS011;17254;50.976;7.034;2023-07-13T00:14:23;7.63;;;2.20;;
30458;SDS011;17254;50.976;7.034;2023-07-13T00:14:30;7.85;;;2.30;;
30458;SDS011;17254;50.976;7.034;2023-07-13T00:14:36;7.22;;;2.20;;
30458;SDS011;17254;50.976;7.034;2023-07-13T00:14:42;6.68;;;2.20;;
30458;SDS011;17254;50.976;7.034;2023-07-13T00:14:47;5.93;;;2.07;;
30458;SDS011;17254;50.976;7.034;2023-07-13T00:14:55;5.30;;;2.00;;
30458;SDS011;17254;50.976;7.034;2023-07-13T00:15:02;5.48;;;2.10;;
30458;SDS011;17254;50.976;7.034;2023-07-13T00:15:12;6.94;;;2.39;;
30458;SDS011;17254;50.976;7.034;2023-07-13T00:15:20;7.53;;;2.43;;
30458;SDS011;17254;50.976;7.034;2023-07-13T00:15:29;7.82;;;2.36;;
30458;SDS011;17254;50.976;7.034;2023-07-13T00:15:36;5.87;;;2.03;;
30458;SDS011;17254;50.976;7.034;2023-07-13T00:15:42;5.90;;;2.00;;
30458;SDS011;17254;50.976;7.034;2023-07-13T00:15:48;5.60;;;1.90;;
30458;SDS011;17254;50.976;7.034;2023-07-13T00:15:55;5.63;;;2.17;;
30458;SDS011;17254;50.976;7.034;2023-07-13T00:16:01;5.60;;;2.20;;
30458;SDS011;17254;50.976;7.034;2023-07-13T00:16:08;5.72;;;2.20;;
30458;SDS011;17254;50.976;7.034;2023-07-13T00:16:14;5.53;;;2.30;;
30458;SDS011;17254;50.976;7.034;2023-07-13T00:16:20;5.63;;;2.20;;
30458;SDS011;17254;50.976;7.034;2023-07-13T00:16:26;6.55;;;2.17;;
30458;SDS011;17254;50.976;7.034;2023-07-13T00:16:32;6.30;;;2.13;;
30458;SDS011;17254;50.976;7.034;2023-07-13T00:16:39;6.48;;;2.10;;
30458;SDS011;17254;50.976;7.034;2023-07-13T00:16:46;6.40;;;2.06;;
30458;SDS011;17254;50.976;7.034;2023-07-13T00:16:52;5.82;;;2.17;;
30458;SDS011;17254;50.976;7.034;2023-07-13T00:16:58;5.40;;;2.17;;
30458;SDS011;17254;50.976;7.034;2023-07-13T00:17:05;6.00;;;2.20;;
30458;SDS011;17254;50.976;7.034;2023-07-13T00:17:12;6.20;;;2.20;;
30458;SDS011;17254;50.976;7.034;2023-07-13T00:17:18;6.22;;;2.17;;
30458;SDS011;17254;50.976;7.034;2023-07-13T00:17:24;6.00;;;1.90;;
30458;SDS011;17254;50.976;7.034;2023-07-13T00:17:30;6.40;;;2.08;;
30458;SDS011;17254;50.976;7.034;2023-07-13T00:17:36;6.28;;;2.17;;
30458;SDS011;17254;50.976;7.034;2023-07-13T00:17:43;5.86;;;2.20;;
30458;SDS011;17254;50.976;7.034;2023-07-13T00:17:49;5.55;;;2.20;;
30458;SDS011;17254;50.976;7.034;2023-07-13T00:17:56;6.00;;;2.30;;
30458;SDS011;17254;50.976;7.034;2023-07-13T00:18:01;5.45;;;2.33;;
30458;SDS011;17254;50.976;7.034;2023-07-13T00:18:07;5.10;;;2.27;;
30458;SDS011;17254;50.976;7.034;2023-07-13T00:18:13;5.45;;;2.33;;
30458;SDS011;17254;50.976;7.034;2023-07-13T00:18:19;5.60;;;2.47;;
30458;SDS011;17254;50.976;7.034;2023-07-13T00:18:25;5.30;;;2.50;;
30458;SDS011;17254;50.976;7.034;2023-07-13T00:18:35;5.97;;;2.37;;
30458;SDS011;17254;50.976;7.034;2023-07-13T00:18:41;5.85;;;2.30;;
30458;SDS011;17254;50.976;7.034;2023-07-13T00:18:47;5.57;;;2.03;;
30458;SDS011;17254;50.976;7.034;2023-07-13T00:18:53;5.90;;;2.04;;
30458;SDS011;17254;50.976;7.034;2023-07-13T00:18:59;6.35;;;2.10;;
30458;SDS011;17254;50.976;7.034;2023-07-13T00:19:06;6.28;;;2.00;;
30458;SDS011;17254;50.976;7.034;2023-07-13T00:19:12;6.20;;;2.08;;
30458;SDS011;17254;50.976;7.034;2023-07-13T00:19:18;6.36;;;2.12;;
30458;SDS011;17254;50.976;7.034;2023-07-13T00:19:24;6.40;;;2.23;;
30458;SDS011;17254;50.976;7.034;2023-07-13T00:19:30;5.80;;;2.28;;
30458;SDS011;17254;50.976;7.034;2023-07-13T00:19:36;5.87;;;2.33;;
30458;SDS011;17254;50.976;7.034;2023-07-13T00:19:42;6.35;;;2.40;;
30458;SDS011;17254;50.976;7.034;2023-07-13T00:19:48;6.18;;;2.40;;
30458;SDS011;17254;50.976;7.034;2023-07-13T00:19:54;5.60;;;2.35;;
30458;SDS011;17254;50.976;7.034;2023-07-13T00:20:02;6.20;;;2.20;;
30458;SDS011;17254;50.976;7.034;2023-07-13T00:20:09;6.60;;;2.13;;
30458;SDS011;17254;50.976;7.034;2023-07-13T00:20:16;6.44;;;2.00;;
30458;SDS011;17254;50.976;7.034;2023-07-13T00:20:22;7.00;;;1.97;;
30458;SDS011;17254;50.976;7.034;2023-07-13T00:20:30;7.23;;;2.03;;
30458;SDS011;17254;50.976;7.034;2023-07-13T00:20:37;7.26;;;1.94;;
30458;SDS011;17254;50.976;7.034;2023-07-13T00:20:43;7.17;;;2.10;;
30458;SDS011;17254;50.976;7.034;2023-07-13T00:20:49;6.95;;;2.10;;
30458;SDS011;17254;50.976;7.034;2023-07-13T00:20:55;6.33;;;2.00;;
30458;SDS011;17254;50.976;7.034;2023-07-13T00:21:09;6.05;;;2.08;;
30458;SDS011;17254;50.976;7.034;2023-07-13T00:21:16;6.27;;;2.20;;
30458;SDS011;17254;50.976;7.034;2023-07-13T00:21:22;6.18;;;2.25;;
30458;SDS011;17254;50.976;7.034;2023-07-13T00:21:28;6.70;;;2.40;;
30458;SDS011;17254;50.976;7.034;2023-07-13T00:21:33;6.38;;;2.30;;
30458;SDS011;17254;50.976;7.034;2023-07-13T00:21:40;5.88;;;2.35;;
30458;SDS011;17254;50.976;7.034;2023-07-13T00:21:46;5.70;;;2.42;;
30458;SDS011;17254;50.976;7.034;2023-07-13T00:21:52;5.72;;;2.50;;
30458;SDS011;17254;50.976;7.034;2023-07-13T00:22:00;5.33;;;2.49;;
30458;SDS011;17254;50.976;7.034;2023-07-13T00:22:06;5.60;;;2.47;;
30458;SDS011;17254;50.976;7.034;2023-07-13T00:22:12;5.23;;;2.50;;
30458;SDS011;17254;50.976;7.034;2023-07-13T00:22:18;5.13;;;2.22;;
30458;SDS011;17254;50.976;7.034;2023-07-13T00:22:24;4.85;;;2.13;;
30458;SDS011;17254;50.976;7.034;2023-07-13T00:22:32;5.95;;;2.08;;
30458;SDS011;17254;50.976;7.034;2023-07-13T00:22:38;5.83;;;2.10;;
30458;SDS011;17254;50.976;7.034;2023-07-13T00:22:44;5.63;;;2.00;;
30458;SDS011;17254;50.976;7.034;2023-07-13T00:22:50;6.03;;;2.03;;
30458;SDS011;17254;50.976;7.034;2023-07-13T00:22:57;6.30;;;2.07;;
30458;SDS011;17254;50.976;7.034;2023-07-13T00:23:03;5.75;;;1.88;;
30458;SDS011;17254;50.976;7.034;2023-07-13T00:23:09;5.90;;;1.80;;
30458;SDS011;17254;50.976;7.034;2023-07-13T00:23:15;6.00;;;1.73;;
30458;SDS011;17254;50.976;7.034;2023-07-13T00:23:22;5.57;;;1.70;;
30458;SDS011;17254;50.976;7.034;2023-07-13T00:23:28;4.67;;;1.60;;
30458;SDS011;17254;50.976;7.034;2023-07-13T00:23:35;4.43;;;1.67;;
30458;SDS011;17254;50.976;7.034;2023-07-13T00:23:42;4.07;;;1.67;;
30458;SDS011;17254;50.976;7.034;2023-07-13T00:23:48;4.13;;;1.67;;
30458;SDS011;17254;50.976;7.034;2023-07-13T00:23:54;4.30;;;1.73;;
30458;SDS011;17254;50.976;7.034;2023-07-13T00:24:00;4.78;;;1.80;;
30458;SDS011;17254;50.976;7.034;2023-07-13T00:24:08;5.23;;;1.80;;
30458;SDS011;17254;50.976;7.034;2023-07-13T00:24:18;5.49;;;1.96;;
30458;SDS011;17254;50.976;7.034;2023-07-13T00:24:28;6.40;;;2.00;;
30458;SDS011;17254;50.976;7.034;2023-07-13T00:24:35;6.03;;;1.97;;
30458;SDS011;17254;50.976;7.034;2023-07-13T00:24:41;6.15;;;2.00;;
30458;SDS011;17254;50.976;7.034;2023-07-13T00:24:47;5.83;;;2.00;;
30458;SDS011;17254;50.976;7.034;2023-07-13T00:24:53;5.43;;;2.00;;
30458;SDS011;17254;50.976;7.034;2023-07-13T00:25:01;4.64;;;1.90;;
30458;SDS011;17254;50.976;7.034;2023-07-13T00:25:09;4.97;;;1.93;;
30458;SDS011;17254;50.976;7.034;2023-07-13T00:25:16;5.53;;;1.77;;
30458;SDS011;17254;50.976;7.034;2023-07-13T00:25:22;5.50;;;1.83;;
30458;SDS011;17254;50.976;7.034;2023-07-13T00:25:29;5.45;;;1.95;;
30458;SDS011;17254;50.976;7.034;2023-07-13T00:25:36;6.10;;;2.00;;
30458;SDS011;17254;50.976;7.034;2023-07-13T00:25:42;5.47;;;1.90;;
30458;SDS011;17254;50.976;7.034;2023-07-13T00:25:48;4.80;;;2.00;;
30458;SDS011;17254;50.976;7.034;2023-07-13T00:25:55;4.50;;;1.90;;
30458;SDS011;17254;50.976;7.034;2023-07-13T00:26:03;3.97;;;1.73;;
30458;SDS011;17254;50.976;7.034;2023-07-13T00:26:11;4.38;;;1.75;;
30458;SDS011;17254;50.976;7.034;2023-07-13T00:26:17;4.67;;;1.70;;
30458;SDS011;17254;50.976;7.034;2023-07-13T00:26:23;5.43;;;1.77;;
30458;SDS011;17254;50.976;7.034;2023-07-13T00:26:29;5.25;;;1.70;;
30458;SDS011;17254;50.976;7.034;2023-07-13T00:26:37;5.33;;;1.90;;
30458;SDS011;17254;50.976;7.034;2023-07-13T00:26:43;5.38;;;1.92;;
30458;SDS011;17254;50.976;7.034;2023-07-13T00:26:50;5.54;;;1.90;;
30458;SDS011;17254;50.976;7.034;2023-07-13T00:26:57;5.83;;;2.00;;
30458;SDS011;17254;50.976;7.034;2023-07-13T00:27:03;5.53;;;1.85;;
30458;SDS011;17254;50.976;7.034;2023-07-13T00:27:09;5.70;;;1.90;;
30458;SDS011;17254;50.976;7.034;2023-07-13T00:27:15;6.13;;;2.03;;
30458;SDS011;17254;50.976;7.034;2023-07-13T00:27:23;6.40;;;2.06;;
30458;SDS011;17254;50.976;7.034;2023-07-13T00:27:32;6.21;;;2.04;;
30458;SDS011;17254;50.976;7.034;2023-07-13T00:27:38;5.85;;;2.03;;
30458;SDS011;17254;50.976;7.034;2023-07-13T00:27:44;6.20;;;1.88;;
30458;SDS011;17254;50.976;7.034;2023-07-13T00:27:53;4.67;;;1.77;;
30458;SDS011;17254;50.976;7.034;2023-07-13T00:28:00;4.33;;;1.70;;
30458;SDS011;17254;50.976;7.034;2023-07-13T00:28:06;5.00;;;1.80;;
30458;SDS011;17254;50.976;7.034;2023-07-13T00:28:12;4.93;;;1.80;;
30458;SDS011;17254;50.976;7.034;2023-07-13T00:28:18;4.83;;;1.80;;
30458;SDS011;17254;50.976;7.034;2023-07-13T00:28:24;5.05;;;1.98;;
30458;SDS011;17254;50.976;7.034;2023-07-13T00:28:30;5.10;;;2.10;;
30458;SDS011;17254;50.976;7.034;2023-07-13T00:28:38;4.66;;;2.10;;
30458;SDS011;17254;50.976;7.034;2023-07-13T00:28:45;4.37;;;2.17;;
30458;SDS011;17254;50.976;7.034;2023-07-13T00:28:51;4.90;;;2.30;;
30458;SDS011;17254;50.976;7.034;2023-07-13T00:28:57;5.93;;;2.33;;
30458;SDS011;17254;50.976;7.034;2023-07-13T00:29:03;6.45;;;2.42;;
30458;SDS011;17254;50.976;7.034;2023-07-13T00:29:13;6.11;;;2.42;;
30458;SDS011;17254;50.976;7.034;2023-07-13T00:29:19;5.97;;;2.22;;
30458;SDS011;17254;50.976;7.034;2023-07-13T00:29:26;6.24;;;2.38;;
30458;SDS011;17254;50.976;7.034;2023-07-13T00:29:32;5.43;;;2.15;;
30458;SDS011;17254;50.976;7.034;2023-07-13T00:29:39;6.23;;;2.20;;
30458;SDS011;17254;50.976;7.034;2023-07-13T00:29:45;6.50;;;2.25;;
30458;SDS011;17254;50.976;7.034;2023-07-13T00:29:51;5.95;;;2.03;;
30458;SDS011;17254;50.976;7.034;2023-07-13T00:29:58;5.65;;;1.90;;
30458;SDS011;17254;50.976;7.034;2023-07-13T00:30:04;5.75;;;1.90;;
30458;SDS011;17254;50.976;7.034;2023-07-13T00:30:12;4.93;;;1.87;;
30458;SDS011;17254;50.976;7.034;2023-07-13T00:30:18;5.10;;;1.98;;
30458;SDS011;17254;50.976;7.034;2023-07-13T00:30:24;5.60;;;1.97;;
30458;SDS011;17254;50.976;7.034;2023-07-13T00:30:31;5.08;;;1.80;;
30458;SDS011;17254;50.976;7.034;2023-07-13T00:30:37;5.25;;;1.75;;
30458;SDS011;17254;50.976;7.034;2023-07-13T00:30:43;5.05;;;1.70;;
30458;SDS011;17254;50.976;7.034;2023-07-13T00:30:49;4.75;;;1.58;;
30458;SDS011;17254;50.976;7.034;2023-07-13T00:30:55;4.45;;;1.77;;
30458;SDS011;17254;50.976;7.034;2023-07-13T00:31:01;4.97;;;1.92;;
30458;SDS011;17254;50.976;7.034;2023-07-13T00:31:08;5.18;;;2.00;;
30458;SDS011;17254;50.976;7.034;2023-07-13T00:31:14;5.33;;;2.00;;
30458;SDS011;17254;50.976;7.034;2023-07-13T00:31:20;5.28;;;2.00;;
30458;SDS011;17254;50.976;7.034;2023-07-13T00:31:26;4.95;;;1.80;;
30458;SDS011;17254;50.976;7.034;2023-07-13T00:31:32;4.43;;;1.73;;
30458;SDS011;17254;50.976;7.034;2023-07-13T00:31:38;4.72;;;1.77;;
30458;SDS011;17254;50.976;7.034;2023-07-13T00:31:44;5.35;;;1.80;;
30458;SDS011;17254;50.976;7.034;2023-07-13T00:31:51;8.87;;;2.17;;
30458;SDS011;17254;50.976;7.034;2023-07-13T00:31:57;8.88;;;2.25;;
30458;SDS011;17254;50.976;7.034;2023-07-13T00:32:03;9.30;;;2.40;;
30458;SDS011;17254;50.976;7.034;2023-07-13T00:32:10;8.84;;;2.30;;
30458;SDS011;17254;50.976;7.034;2023-07-13T00:32:16;7.38;;;2.20;;
30458;SDS011;17254;50.976;7.034;2023-07-13T00:32:22;5.30;;;1.92;;
30458;SDS011;17254;50.976;7.034;2023-07-13T00:32:30;6.05;;;1.88;;
30458;SDS011;17254;50.976;7.034;2023-07-13T00:32:36;6.28;;;1.92;;
30458;SDS011;17254;50.976;7.034;2023-07-13T00:32:43;6.90;;;2.10;;
30458;SDS011;17254;50.976;7.034;2023-07-13T00:32:49;6.68;;;2.22;;
30458;SDS011;17254;50.976;7.034;2023-07-13T00:32:56;6.53;;;2.30;;
30458;SDS011;17254;50.976;7.034;2023-07-13T00:33:03;5.23;;;2.23;;
30458;SDS011;17254;50.976;7.034;2023-07-13T00:33:09;6.22;;;2.30;;
30458;SDS011;17254;50.976;7.034;2023-07-13T00:33:14;5.72;;;2.20;;
30458;SDS011;17254;50.976;7.034;2023-07-13T00:33:20;5.80;;;2.20;;
30458;SDS011;17254;50.976;7.034;2023-07-13T00:33:28;5.82;;;2.22;;
30458;SDS011;17254;50.976;7.034;2023-07-13T00:33:36;5.20;;;2.18;;
30458;SDS011;17254;50.976;7.034;2023-07-13T00:33:42;4.40;;;2.25;;
30458;SDS011;17254;50.976;7.034;2023-07-13T00:33:48;4.97;;;2.20;;
30458;SDS011;17254;50.976;7.034;2023-07-13T00:33:54;5.03;;;2.10;;
30458;SDS011;17254;50.976;7.034;2023-07-13T00:34:01;5.50;;;2.03;;
30458;SDS011;17254;50.976;7.034;2023-07-13T00:34:07;6.63;;;2.17;;
30458;SDS011;17254;50.976;7.034;2023-07-13T00:34:13;6.88;;;2.13;;
30458;SDS011;17254;50.976;7.034;2023-07-13T00:34:18;6.43;;;2.10;;
30458;SDS011;17254;50.976;7.034;2023-07-13T00:34:24;6.20;;;2.00;;
30458;SDS011;17254;50.976;7.034;2023-07-13T00:34:31;6.26;;;2.08;;
30458;SDS011;17254;50.976;7.034;2023-07-13T00:34:38;5.45;;;1.95;;
30458;SDS011;17254;50.976;7.034;2023-07-13T00:34:44;5.22;;;1.90;;
30458;SDS011;17254;50.976;7.034;2023-07-13T00:34:50;5.13;;;1.90;;
30458;SDS011;17254;50.976;7.034;2023-07-13T00:34:57;5.30;;;1.90;;
30458;SDS011;17254;50.976;7.034;2023-07-13T00:35:05;5.10;;;1.87;;
30458;SDS011;17254;50.976;7.034;2023-07-13T00:35:12;5.55;;;1.90;;
30458;SDS011;17254;50.976;7.034;2023-07-13T00:35:19;5.77;;;1.90;;
30458;SDS011;17254;50.976;7.034;2023-07-13T00:35:25;5.80;;;1.92;;
30458;SDS011;17254;50.976;7.034;2023-07-13T00:35:31;5.32;;;1.85;;
30458;SDS011;17254;50.976;7.034;2023-07-13T00:35:37;5.07;;;1.70;;
30458;SDS011;17254;50.976;7.034;2023-07-13T00:35:44;4.57;;;1.70;;
30458;SDS011;17254;50.976;7.034;2023-07-13T00:35:50;4.10;;;1.60;;
30458;SDS011;17254;50.976;7.034;2023-07-13T00:35:56;4.47;;;1.75;;
30458;SDS011;17254;50.976;7.034;2023-07-13T00:36:03;4.20;;;1.88;;
30458;SDS011;17254;50.976;7.034;2023-07-13T00:36:09;4.17;;;1.97;;
30458;SDS011;17254;50.976;7.034;2023-07-13T00:36:15;4.47;;;2.03;;
30458;SDS011;17254;50.976;7.034;2023-07-13T00:36:21;4.40;;;2.10;;
30458;SDS011;17254;50.976;7.034;2023-07-13T00:36:27;4.97;;;2.10;;
30458;SDS011;17254;50.976;7.034;2023-07-13T00:36:35;5.17;;;2.02;;
30458;SDS011;17254;50.976;7.034;2023-07-13T00:36:42;5.20;;;1.83;;
30458;SDS011;17254;50.976;7.034;2023-07-13T00:36:48;5.10;;;1.83;;
30458;SDS011;17254;50.976;7.034;2023-07-13T00:36:54;4.85;;;1.77;;
30458;SDS011;17254;50.976;7.034;2023-07-13T00:37:00;4.45;;;1.83;;
30458;SDS011;17254;50.976;7.034;2023-07-13T00:37:06;5.03;;;1.88;;
30458;SDS011;17254;50.976;7.034;2023-07-13T00:37:13;4.82;;;2.00;;
30458;SDS011;17254;50.976;7.034;2023-07-13T00:37:19;4.80;;;2.00;;
30458;SDS011;17254;50.976;7.034;2023-07-13T00:37:25;4.97;;;2.00;;
30458;SDS011;17254;50.976;7.034;2023-07-13T00:37:31;4.67;;;1.80;;
30458;SDS011;17254;50.976;7.034;2023-07-13T00:37:38;4.08;;;1.76;;
30458;SDS011;17254;50.976;7.034;2023-07-13T00:37:44;4.15;;;1.70;;
30458;SDS011;17254;50.976;7.034;2023-07-13T00:37:50;4.90;;;1.80;;
30458;SDS011;17254;50.976;7.034;2023-07-13T00:37:56;6.13;;;2.07;;
30458;SDS011;17254;50.976;7.034;2023-07-13T00:38:03;6.17;;;2.13;;
30458;SDS011;17254;50.976;7.034;2023-07-13T00:38:09;6.50;;;2.20;;
30458;SDS011;17254;50.976;7.034;2023-07-13T00:38:14;7.47;;;2.20;;
30458;SDS011;17254;50.976;7.034;2023-07-13T00:38:21;7.10;;;2.30;;
30458;SDS011;17254;50.976;7.034;2023-07-13T00:38:27;6.23;;;2.10;;
30458;SDS011;17254;50.976;7.034;2023-07-13T00:38:34;6.42;;;2.08;;
30458;SDS011;17254;50.976;7.034;2023-07-13T00:38:40;6.55;;;2.05;;
30458;SDS011;17254;50.976;7.034;2023-07-13T00:38:46;6.53;;;2.13;;
30458;SDS011;17254;50.976;7.034;2023-07-13T00:38:52;6.70;;;2.03;;
30458;SDS011;17254;50.976;7.034;2023-07-13T00:38:58;6.22;;;2.10;;
30458;SDS011;17254;50.976;7.034;2023-07-13T00:39:04;6.27;;;2.13;;
30458;SDS011;17254;50.976;7.034;2023-07-13T00:39:11;5.90;;;2.10;;
30458;SDS011;17254;50.976;7.034;2023-07-13T00:39:18;5.56;;;2.04;;
30458;SDS011;17254;50.976;7.034;2023-07-13T00:39:26;5.55;;;2.00;;
30458;SDS011;17254;50.976;7.034;2023-07-13T00:39:32;5.73;;;2.00;;
30458;SDS011;17254;50.976;7.034;2023-07-13T00:39:38;5.84;;;2.10;;